createdAt,value
2023-05-23T00:01:54.874Z,55.38
2023-05-23T00:04:26.983Z,55.43
2023-05-23T00:06:55.681Z,55.47
2023-05-23T00:09:23.815Z,55.21
2023-05-23T00:11:53.128Z,55.37
2023-05-23T00:14:21.730Z,55.19
2023-05-23T00:16:50.161Z,55.10
2023-05-23T00:19:18.320Z,55.24
2023-05-23T00:21:49.783Z,55.23
2023-05-23T00:24:18.869Z,55.04
2023-05-23T00:26:47.360Z,54.95
2023-05-23T00:29:17.703Z,55.25
2023-05-23T00:31:46.805Z,55.18
2023-05-23T00:34:15.356Z,55.16
2023-05-23T00:36:43.754Z,55.10
2023-05-23T00:39:19.217Z,55.29
2023-05-23T00:41:51.094Z,55.17
2023-05-23T00:44:22.154Z,55.30
2023-05-23T00:46:54.696Z,55.26
2023-05-23T00:49:23.198Z,54.97
2023-05-23T00:51:52.043Z,55.17
2023-05-23T00:54:25.523Z,54.99
2023-05-23T00:56:54.286Z,54.98
2023-05-23T00:59:25.665Z,55.22
2023-05-23T01:01:56.142Z,55.23
2023-05-23T01:04:27.029Z,55.27
2023-05-23T01:06:56.240Z,55.03
2023-05-23T01:09:26.481Z,54.99
2023-05-23T01:12:05.039Z,55.00
2023-05-23T01:14:43.536Z,55.23
2023-05-23T01:17:17.883Z,55.11
2023-05-23T01:19:56.858Z,55.12
2023-05-23T01:22:40.485Z,55.00
2023-05-23T01:25:18.619Z,55.12
2023-05-23T01:27:54.150Z,55.12
2023-05-23T01:30:22.633Z,55.08
2023-05-23T01:32:52.717Z,54.97
2023-05-23T01:35:26.382Z,54.92
2023-05-23T01:37:54.606Z,54.91
2023-05-23T01:40:22.865Z,54.93
2023-05-23T01:42:53.251Z,55.07
2023-05-23T01:45:22.109Z,55.07
2023-05-23T01:47:52.096Z,54.79
2023-05-23T01:50:20.240Z,54.86
2023-05-23T01:52:48.706Z,54.93
2023-05-23T01:55:22.762Z,54.71
2023-05-23T01:57:53.270Z,54.95
2023-05-23T02:00:21.704Z,54.73
2023-05-23T02:02:52.864Z,54.73
2023-05-23T02:05:21.339Z,54.73
2023-05-23T02:07:52.110Z,54.71
2023-05-23T02:10:20.931Z,54.88
2023-05-23T02:12:52.576Z,54.73
2023-05-23T02:15:20.894Z,54.85
2023-05-23T02:17:49.701Z,54.82
2023-05-23T02:20:19.133Z,54.84
2023-05-23T02:22:47.786Z,54.68
2023-05-23T02:25:15.859Z,54.64
2023-05-23T02:27:44.092Z,54.67
2023-05-23T02:30:14.657Z,54.71
2023-05-23T02:32:42.799Z,54.54
2023-05-23T02:35:13.763Z,54.76
2023-05-23T02:37:41.723Z,54.58
2023-05-23T02:40:10.666Z,54.52
2023-05-23T02:42:38.711Z,54.52
2023-05-23T02:45:07.681Z,54.54
2023-05-23T02:47:37.038Z,54.78
2023-05-23T02:50:05.418Z,54.52
2023-05-23T02:52:33.703Z,54.49
2023-05-23T02:55:01.944Z,54.64
2023-05-23T02:57:29.939Z,54.59
2023-05-23T02:59:57.949Z,54.43
2023-05-23T03:02:26.003Z,54.40
2023-05-23T03:04:56.141Z,54.49
2023-05-23T03:07:28.220Z,54.56
2023-05-23T03:09:56.869Z,54.45
2023-05-23T03:12:24.878Z,54.63
2023-05-23T03:14:52.885Z,54.41
2023-05-23T03:17:21.136Z,54.51
2023-05-23T03:19:49.134Z,54.29
2023-05-23T03:22:18.534Z,54.54
2023-05-23T03:24:46.558Z,54.35
2023-05-23T03:27:14.710Z,54.41
2023-05-23T03:29:42.713Z,54.27
2023-05-23T03:32:10.700Z,54.24
2023-05-23T03:34:38.704Z,54.46
2023-05-23T03:37:06.692Z,54.18
2023-05-23T03:39:39.696Z,54.26
2023-05-23T03:42:10.355Z,54.30
2023-05-23T03:44:40.839Z,54.29
2023-05-23T03:47:09.947Z,54.47
2023-05-23T03:49:37.884Z,54.22
2023-05-23T03:52:05.853Z,54.23
2023-05-23T03:54:33.797Z,54.23
2023-05-23T03:57:03.157Z,54.23
2023-05-23T03:59:31.187Z,54.15
2023-05-23T04:02:00.445Z,54.32
2023-05-23T04:04:28.443Z,54.16
2023-05-23T04:06:58.104Z,54.35
2023-05-23T04:09:26.119Z,53.99
2023-05-23T04:11:54.064Z,53.95
2023-05-23T04:14:23.605Z,53.95
2023-05-23T04:16:51.589Z,54.16
2023-05-23T04:19:19.585Z,54.01
2023-05-23T04:21:47.594Z,53.85
2023-05-23T04:24:18.222Z,53.83
2023-05-23T04:26:46.419Z,53.96
2023-05-23T04:29:14.440Z,53.76
2023-05-23T04:31:46.020Z,53.85
2023-05-23T04:34:14.362Z,54.02
2023-05-23T04:36:44.703Z,53.90
2023-05-23T04:39:12.768Z,53.65
2023-05-23T04:41:40.965Z,53.75
2023-05-23T04:44:10.151Z,53.76
2023-05-23T04:46:42.034Z,53.85
2023-05-23T04:49:13.041Z,53.73
2023-05-23T04:51:41.471Z,53.80
2023-05-23T04:54:09.553Z,53.70
2023-05-23T04:56:37.568Z,53.78
2023-05-23T04:59:05.526Z,53.64
2023-05-23T05:01:34.578Z,53.62
2023-05-23T05:04:02.710Z,53.56
2023-05-23T05:06:32.459Z,53.52
2023-05-23T05:09:00.528Z,53.40
2023-05-23T05:11:28.628Z,53.44
2023-05-23T05:13:56.652Z,53.46
2023-05-23T05:16:24.732Z,53.37
2023-05-23T05:18:52.846Z,53.32
2023-05-23T05:21:20.778Z,53.44
2023-05-23T05:23:53.138Z,53.51
2023-05-23T05:26:21.563Z,53.32
2023-05-23T05:28:49.572Z,53.32
2023-05-23T05:31:17.754Z,53.21
2023-05-23T05:33:46.096Z,53.13
2023-05-23T05:36:14.291Z,53.16
2023-05-23T05:38:42.241Z,53.08
2023-05-23T05:41:11.632Z,53.27
2023-05-23T05:43:39.662Z,53.02
2023-05-23T05:46:07.962Z,53.22
2023-05-23T05:48:35.982Z,53.08
2023-05-23T05:51:04.297Z,53.02
2023-05-23T05:53:32.310Z,53.26
2023-05-23T05:56:01.016Z,53.13
2023-05-23T05:58:30.423Z,52.88
2023-05-23T06:00:59.198Z,52.99
2023-05-23T06:03:27.456Z,52.97
2023-05-23T06:05:55.683Z,53.02
2023-05-23T06:08:26.623Z,52.90
2023-05-23T06:10:54.657Z,52.95
2023-05-23T06:13:22.602Z,52.70
2023-05-23T06:15:52.025Z,52.80
2023-05-23T06:18:20.030Z,52.65
2023-05-23T06:20:48.025Z,52.80
2023-05-23T06:23:15.996Z,52.71
2023-05-23T06:25:44.025Z,52.56
2023-05-23T06:28:11.958Z,52.60
2023-05-23T06:30:40.535Z,52.34
2023-05-23T06:33:10.272Z,52.51
2023-05-23T06:35:38.412Z,52.53
2023-05-23T06:38:09.492Z,52.26
2023-05-23T06:40:37.482Z,52.33
2023-05-23T06:43:05.449Z,53.16
2023-05-23T06:45:35.161Z,53.83
2023-05-23T06:48:03.359Z,53.62
2023-05-23T06:50:32.720Z,53.30
2023-05-23T06:53:00.829Z,53.43
2023-05-23T06:55:28.779Z,53.17
2023-05-23T06:57:56.828Z,53.09
2023-05-23T07:00:26.628Z,52.98
2023-05-23T07:02:54.713Z,53.00
2023-05-23T07:05:22.886Z,52.94
2023-05-23T07:07:52.340Z,52.84
2023-05-23T07:10:20.868Z,53.13
2023-05-23T07:12:49.250Z,53.25
2023-05-23T07:15:17.407Z,53.34
2023-05-23T07:17:45.715Z,53.33
2023-05-23T07:20:13.697Z,53.00
2023-05-23T07:22:41.714Z,52.97
2023-05-23T07:25:11.659Z,52.77
2023-05-23T07:27:39.906Z,52.79
2023-05-23T07:30:09.860Z,52.69
2023-05-23T07:32:37.971Z,52.42
2023-05-23T07:35:06.676Z,52.60
2023-05-23T07:37:34.748Z,52.75
2023-05-23T07:40:02.785Z,52.96
2023-05-23T07:42:32.163Z,52.48
2023-05-23T07:45:00.159Z,52.37
2023-05-23T07:47:28.364Z,52.28
2023-05-23T07:49:59.299Z,52.42
2023-05-23T07:52:27.246Z,52.36
2023-05-23T07:54:55.168Z,52.55
2023-05-23T07:57:24.496Z,52.28
2023-05-23T07:59:54.496Z,52.50
2023-05-23T08:02:22.512Z,52.12
2023-05-23T08:04:51.069Z,51.95
2023-05-23T08:07:19.634Z,51.86
2023-05-23T08:09:50.342Z,51.67
2023-05-23T08:12:18.337Z,51.07
2023-05-23T08:14:51.543Z,51.43
2023-05-23T08:17:21.892Z,50.99
2023-05-23T08:19:51.248Z,51.08
2023-05-23T08:22:19.353Z,51.48
2023-05-23T08:24:47.377Z,51.70
2023-05-23T08:27:17.911Z,51.83
2023-05-23T08:29:46.471Z,51.66
2023-05-23T08:32:14.509Z,51.36
2023-05-23T08:34:44.061Z,51.29
2023-05-23T08:37:12.245Z,51.30
2023-05-23T08:39:40.232Z,51.10
2023-05-23T08:42:09.030Z,50.85
2023-05-23T08:44:37.121Z,50.57
2023-05-23T08:47:06.590Z,50.62
2023-05-23T08:49:35.125Z,50.55
2023-05-23T08:52:05.072Z,51.53
2023-05-23T08:54:34.125Z,51.86
2023-05-23T08:57:05.405Z,49.94
2023-05-23T08:59:35.834Z,50.21
2023-05-23T09:02:07.824Z,51.19
2023-05-23T09:04:36.340Z,50.94
2023-05-23T09:07:06.622Z,50.78
2023-05-23T09:09:34.770Z,50.60
2023-05-23T09:12:06.364Z,50.45
2023-05-23T09:14:34.375Z,50.95
2023-05-23T09:17:04.829Z,51.06
2023-05-23T09:19:33.552Z,50.71
2023-05-23T09:22:05.028Z,50.20
2023-05-23T09:24:37.023Z,49.79
2023-05-23T09:27:07.546Z,49.54
2023-05-23T09:29:39.096Z,49.34
2023-05-23T09:32:13.099Z,50.20
2023-05-23T09:34:56.240Z,49.82
2023-05-23T09:37:31.385Z,49.80
2023-05-23T09:40:00.994Z,49.35
2023-05-23T09:42:34.365Z,49.19
2023-05-23T09:45:04.622Z,49.04
2023-05-23T09:47:36.220Z,49.12
2023-05-23T09:50:05.072Z,49.09
2023-05-23T09:52:37.746Z,48.81
2023-05-23T09:55:06.657Z,48.45
2023-05-23T09:57:37.711Z,48.25
2023-05-23T10:00:07.405Z,48.18
2023-05-23T10:03:00.024Z,47.83
2023-05-23T10:05:35.372Z,47.74
2023-05-23T10:08:10.782Z,47.43
2023-05-23T10:11:23.145Z,47.42
2023-05-23T10:13:53.283Z,47.62
2023-05-23T10:16:28.341Z,47.80
2023-05-23T10:18:59.177Z,48.64
2023-05-23T10:21:33.139Z,48.91
2023-05-23T10:24:04.854Z,48.80
2023-05-23T10:26:33.128Z,48.68
2023-05-23T10:29:02.417Z,48.52
2023-05-23T10:31:31.321Z,48.60
2023-05-23T10:34:07.423Z,48.14
2023-05-23T10:36:44.790Z,47.96
2023-05-23T10:39:23.983Z,48.21
2023-05-23T10:41:57.662Z,47.74
2023-05-23T10:44:30.153Z,47.19
2023-05-23T10:47:02.679Z,47.10
2023-05-23T10:49:39.700Z,47.05
2023-05-23T10:52:08.456Z,46.80
2023-05-23T10:54:38.354Z,47.53
2023-05-23T10:57:11.882Z,47.14
2023-05-23T10:59:40.627Z,47.23
2023-05-23T11:02:15.795Z,46.54
2023-05-23T11:04:44.453Z,47.04
2023-05-23T11:07:30.684Z,46.20
2023-05-23T11:10:15.197Z,43.99
2023-05-23T11:12:44.639Z,43.84
2023-05-23T11:15:42.899Z,44.48
2023-05-23T11:18:12.062Z,44.72
2023-05-23T11:20:47.679Z,45.34
2023-05-23T11:23:16.081Z,45.17
2023-05-23T11:25:46.933Z,44.98
2023-05-23T11:28:15.567Z,44.98
2023-05-23T11:30:44.015Z,43.69
2023-05-23T11:33:15.045Z,44.60
2023-05-23T11:35:47.995Z,44.72
2023-05-23T11:38:16.855Z,44.65
2023-05-23T11:40:47.650Z,45.12
2023-05-23T11:43:17.978Z,45.18
2023-05-23T11:45:47.530Z,45.19
2023-05-23T11:48:17.842Z,44.68
2023-05-23T11:50:48.388Z,43.58
2023-05-23T11:53:18.638Z,43.97
2023-05-23T11:55:55.507Z,44.37
2023-05-23T11:58:24.123Z,44.44
2023-05-23T12:00:55.088Z,44.31
2023-05-23T12:03:23.703Z,44.36
2023-05-23T12:05:51.835Z,44.59
2023-05-23T12:08:19.828Z,44.39
2023-05-23T12:10:54.720Z,44.42
2023-05-23T12:13:26.256Z,44.65
2023-05-23T12:15:58.713Z,44.66
2023-05-23T12:18:30.238Z,44.25
2023-05-23T12:21:03.160Z,44.33
2023-05-23T12:23:34.553Z,44.27
2023-05-23T12:26:07.099Z,44.15
2023-05-23T12:28:38.624Z,44.33
2023-05-23T12:31:13.666Z,44.05
2023-05-23T12:33:44.097Z,44.22
2023-05-23T12:40:35.748Z,44.39
2023-05-23T12:43:05.243Z,44.53
2023-05-23T12:45:34.449Z,44.71
2023-05-23T12:48:06.118Z,44.68
2023-05-23T12:50:34.617Z,44.77
2023-05-23T12:53:03.050Z,44.42
2023-05-23T12:55:31.189Z,43.49
2023-05-23T12:57:59.652Z,44.07
2023-05-23T13:00:29.525Z,43.61
2023-05-23T13:02:58.058Z,42.30
2023-05-23T13:05:27.620Z,41.66
2023-05-23T13:07:56.220Z,42.58
2023-05-23T13:10:24.770Z,43.71
2023-05-23T13:12:53.836Z,43.46
2023-05-23T13:15:22.169Z,43.57
2023-05-23T13:17:52.354Z,44.33
2023-05-23T13:20:20.741Z,44.64
2023-05-23T13:22:49.317Z,44.84
2023-05-23T13:25:20.270Z,45.02
2023-05-23T13:27:49.401Z,44.57
2023-05-23T13:30:18.175Z,45.13
2023-05-23T13:32:46.865Z,45.66
2023-05-23T13:35:19.811Z,45.58
2023-05-23T13:37:48.198Z,44.93
2023-05-23T13:40:19.948Z,45.33
2023-05-23T13:42:52.116Z,44.96
2023-05-23T13:45:22.814Z,44.79
2023-05-23T13:47:51.436Z,44.97
2023-05-23T13:50:21.253Z,45.01
2023-05-23T13:52:49.787Z,45.29
2023-05-23T13:55:20.052Z,44.73
2023-05-23T13:57:48.493Z,45.31
2023-05-23T14:00:17.464Z,44.66
2023-05-23T14:02:45.601Z,44.12
2023-05-23T14:05:15.956Z,44.16
2023-05-23T14:07:47.337Z,44.22
2023-05-23T14:10:17.542Z,43.46
2023-05-23T14:12:46.038Z,43.89
2023-05-23T14:15:14.513Z,43.31
2023-05-23T14:17:42.657Z,43.31
2023-05-23T14:20:11.529Z,43.33
2023-05-23T14:22:40.226Z,43.27
2023-05-23T14:25:11.060Z,42.87
2023-05-23T14:27:40.227Z,42.37
2023-05-23T14:30:09.723Z,42.85
2023-05-23T14:32:39.240Z,44.15
2023-05-23T14:35:08.987Z,44.32
2023-05-23T14:37:37.371Z,44.16
2023-05-23T14:40:06.883Z,44.36
2023-05-23T14:42:36.715Z,45.40
2023-05-23T14:45:05.012Z,45.44
2023-05-23T14:47:37.574Z,46.45
2023-05-23T14:50:06.782Z,47.27
2023-05-23T14:52:34.987Z,46.54
2023-05-23T14:55:03.450Z,41.86
2023-05-23T14:57:31.505Z,41.69
2023-05-23T15:00:05.924Z,41.95
2023-05-23T15:02:34.505Z,41.43
2023-05-23T15:05:03.010Z,41.00
2023-05-23T15:07:32.340Z,40.53
2023-05-23T15:10:00.394Z,41.63
2023-05-23T15:12:29.231Z,42.03
2023-05-23T15:15:03.561Z,39.26
2023-05-23T15:17:34.424Z,39.43
2023-05-23T15:20:06.057Z,40.31
2023-05-23T15:22:39.778Z,41.05
2023-05-23T15:25:09.472Z,41.78
2023-05-23T15:27:38.067Z,41.91
2023-05-23T15:30:08.275Z,42.75
2023-05-23T15:32:38.480Z,42.75
2023-05-23T15:35:08.194Z,42.72
2023-05-23T15:37:36.322Z,41.96
2023-05-23T15:40:05.303Z,41.26
2023-05-23T15:42:33.752Z,39.23
2023-05-23T15:45:02.198Z,39.10
2023-05-23T15:47:30.447Z,39.06
2023-05-23T15:50:02.376Z,39.93
2023-05-23T15:52:30.715Z,40.37
2023-05-23T15:54:58.941Z,40.36
2023-05-23T15:57:27.362Z,40.91
2023-05-23T15:59:55.503Z,40.96
2023-05-23T16:02:24.099Z,41.53
2023-05-23T16:04:52.225Z,41.67
2023-05-23T16:07:21.886Z,41.65
2023-05-23T16:09:50.187Z,41.75
2023-05-23T16:12:21.601Z,41.91
2023-05-23T16:14:51.268Z,42.10
2023-05-23T16:17:22.189Z,42.07
2023-05-23T16:19:50.362Z,42.53
2023-05-23T16:22:18.593Z,42.58
2023-05-23T16:24:48.301Z,42.45
2023-05-23T16:27:16.607Z,42.19
2023-05-23T16:29:44.759Z,42.06
2023-05-23T16:32:13.257Z,42.19
2023-05-23T16:34:41.512Z,42.32
2023-05-23T16:37:11.354Z,42.26
2023-05-23T16:39:40.322Z,41.73
2023-05-23T16:42:09.925Z,42.23
2023-05-23T16:44:38.822Z,41.85
2023-05-23T16:47:07.231Z,42.17
2023-05-23T16:49:37.137Z,42.18
2023-05-23T16:52:07.412Z,41.63
2023-05-23T16:54:36.633Z,41.48
2023-05-23T16:57:07.747Z,41.52
2023-05-23T16:59:37.857Z,41.39
2023-05-23T17:02:07.952Z,41.00
2023-05-23T17:04:38.782Z,41.42
2023-05-23T17:07:08.663Z,41.13
2023-05-23T17:09:37.314Z,40.77
2023-05-23T17:12:06.854Z,41.39
2023-05-23T17:14:35.217Z,41.03
2023-05-23T17:17:08.121Z,41.31
2023-05-23T17:19:36.939Z,41.10
2023-05-23T17:22:08.106Z,40.90
2023-05-23T17:24:36.595Z,41.23
2023-05-23T17:27:05.358Z,41.54
2023-05-23T17:29:33.757Z,42.20
2023-05-23T17:32:02.632Z,42.25
2023-05-23T17:34:32.393Z,42.20
2023-05-23T17:37:03.214Z,42.22
2023-05-23T17:39:32.940Z,42.69
2023-05-23T17:42:02.282Z,41.58
2023-05-23T17:44:30.798Z,41.95
2023-05-23T17:46:58.974Z,42.43
2023-05-23T17:49:27.346Z,41.60
2023-05-23T17:51:57.806Z,41.96
2023-05-23T17:54:28.826Z,42.44
2023-05-23T17:56:57.261Z,41.94
2023-05-23T17:59:27.881Z,41.92
2023-05-23T18:01:56.409Z,42.14
2023-05-23T18:04:26.044Z,42.43
2023-05-23T18:06:54.107Z,42.32
2023-05-23T18:09:24.442Z,42.25
2023-05-23T18:11:53.453Z,41.69
2023-05-23T18:14:21.929Z,42.08
2023-05-23T18:16:50.303Z,41.87
2023-05-23T18:19:18.460Z,42.01
2023-05-23T18:21:48.357Z,42.13
2023-05-23T18:24:17.108Z,42.21
2023-05-23T18:26:49.663Z,41.45
2023-05-23T18:29:20.082Z,42.03
2023-05-23T18:31:48.395Z,41.19
2023-05-23T18:34:16.930Z,41.24
2023-05-23T18:36:45.879Z,41.42
2023-05-23T18:39:14.104Z,41.53
2023-05-23T18:41:43.223Z,41.48
2023-05-23T18:44:13.764Z,41.11
2023-05-23T18:46:42.618Z,41.17
2023-05-23T18:49:11.563Z,41.41
2023-05-23T18:51:39.865Z,41.30
2023-05-23T18:54:09.628Z,41.22
2023-05-23T18:56:38.970Z,41.42
2023-05-23T18:59:07.848Z,41.29
2023-05-23T19:01:39.358Z,41.37
2023-05-23T19:04:14.018Z,40.82
2023-05-23T19:06:42.112Z,40.78
2023-05-23T19:09:12.853Z,40.71
2023-05-23T19:11:45.583Z,39.51
2023-05-23T19:14:16.168Z,39.80
2023-05-23T19:16:46.456Z,40.09
2023-05-23T19:19:15.823Z,40.92
2023-05-23T19:21:47.453Z,41.26
2023-05-23T19:24:15.960Z,41.30
2023-05-23T19:26:46.096Z,41.61
2023-05-23T19:29:16.044Z,41.15
2023-05-23T19:31:46.339Z,41.30
2023-05-23T19:34:16.982Z,40.77
2023-05-23T19:36:47.918Z,41.25
2023-05-23T19:39:16.455Z,40.45
2023-05-23T19:41:44.696Z,40.73
2023-05-23T19:44:13.430Z,40.57
2023-05-23T19:46:43.729Z,40.79
2023-05-23T19:49:17.321Z,40.60
2023-05-23T19:51:46.225Z,40.51
2023-05-23T19:54:15.572Z,40.63
2023-05-23T19:56:43.722Z,40.69
2023-05-23T19:59:14.754Z,40.61
2023-05-23T20:01:43.638Z,40.60
2023-05-23T20:04:13.256Z,40.54
2023-05-23T20:06:46.067Z,40.69
2023-05-23T20:09:18.072Z,40.93
2023-05-23T20:11:46.646Z,40.83
2023-05-23T20:14:17.841Z,40.74
2023-05-23T20:16:47.553Z,40.68
2023-05-23T20:19:18.972Z,40.75
2023-05-23T20:21:56.712Z,40.77
2023-05-23T20:24:30.882Z,40.78
2023-05-23T20:26:58.992Z,40.73
2023-05-23T20:29:27.674Z,40.67
2023-05-23T20:31:56.650Z,40.67
2023-05-23T20:34:27.410Z,40.79
2023-05-23T20:36:55.886Z,40.61
2023-05-23T20:39:24.407Z,40.60
2023-05-23T20:41:53.654Z,40.58
2023-05-23T20:44:23.093Z,40.82
2023-05-23T20:46:53.038Z,40.58
2023-05-23T20:49:21.089Z,40.74
2023-05-23T20:51:52.253Z,40.71
2023-05-23T20:54:21.483Z,40.65
2023-05-23T20:56:52.499Z,40.58
2023-05-23T20:59:26.017Z,40.88
2023-05-23T21:01:54.690Z,40.78
2023-05-23T21:04:25.326Z,40.87
2023-05-23T21:06:55.038Z,40.73
2023-05-23T21:09:25.195Z,40.59
2023-05-23T21:11:54.202Z,40.64
2023-05-23T21:14:22.610Z,40.70
2023-05-23T21:16:51.712Z,40.66
2023-05-23T21:19:22.817Z,40.66
2023-05-23T21:21:53.785Z,40.61
2023-05-23T21:24:24.508Z,40.78
2023-05-23T21:26:53.799Z,40.75
2023-05-23T21:29:21.932Z,40.72
2023-05-23T21:31:50.556Z,40.81
2023-05-23T21:34:23.919Z,40.74
2023-05-23T21:36:53.287Z,40.70
2023-05-23T21:39:25.282Z,40.62
2023-05-23T21:41:54.553Z,40.65
2023-05-23T21:44:23.228Z,40.56
2023-05-23T21:46:51.707Z,40.80
2023-05-23T21:49:20.044Z,40.57
2023-05-23T21:51:51.228Z,40.64
2023-05-23T21:54:19.601Z,40.54
2023-05-23T21:56:54.423Z,40.56
2023-05-23T21:59:22.738Z,40.74
2023-05-23T22:01:50.964Z,40.97
2023-05-23T22:04:20.251Z,40.87
2023-05-23T22:06:48.767Z,40.66
2023-05-23T22:09:17.114Z,40.69
2023-05-23T22:11:45.888Z,40.69
2023-05-23T22:14:15.738Z,40.64
2023-05-23T22:16:44.062Z,40.76
2023-05-23T22:19:12.817Z,40.78
2023-05-23T22:21:41.394Z,40.84
2023-05-23T22:24:09.696Z,40.76
2023-05-23T22:26:39.309Z,40.71
2023-05-23T22:29:07.507Z,40.86
2023-05-23T22:31:37.051Z,40.80
2023-05-23T22:34:05.073Z,40.83
2023-05-23T22:36:33.508Z,40.81
2023-05-23T22:39:05.438Z,40.73
2023-05-23T22:41:34.515Z,40.75
2023-05-23T22:44:02.498Z,40.87
2023-05-23T22:46:30.647Z,40.83
2023-05-23T22:49:00.383Z,40.70
2023-05-23T22:51:29.373Z,40.71
2023-05-23T22:53:57.459Z,40.81
2023-05-23T22:56:25.602Z,40.73
2023-05-23T22:58:53.855Z,40.82
2023-05-23T23:01:21.844Z,40.70
2023-05-23T23:03:49.862Z,40.79
2023-05-23T23:06:22.089Z,40.67
2023-05-23T23:08:50.578Z,40.82
2023-05-23T23:11:18.843Z,40.87
2023-05-23T23:13:46.990Z,40.69
2023-05-23T23:16:15.002Z,40.77
2023-05-23T23:18:45.587Z,40.85
2023-05-23T23:21:13.780Z,40.97
2023-05-23T23:23:43.573Z,40.94
2023-05-23T23:26:11.667Z,40.79
2023-05-23T23:28:39.607Z,40.97
2023-05-23T23:31:07.664Z,41.03
2023-05-23T23:33:35.689Z,41.02
2023-05-23T23:36:03.638Z,40.96
2023-05-23T23:38:31.692Z,40.93
2023-05-23T23:41:01.015Z,40.88
2023-05-23T23:43:30.038Z,40.80
2023-05-23T23:45:58.132Z,40.99
2023-05-23T23:48:26.111Z,40.88
2023-05-23T23:50:54.110Z,40.99
2023-05-23T23:53:22.489Z,40.97
2023-05-23T23:55:51.043Z,41.16
2023-05-23T23:58:20.452Z,41.26
